Terminal Aerodrome Forecast
Issued by NWS

Home | Current Version | Previous Version | Graphics & Text | Print | Product List | Glossary Off
Versions: 1 2 3 4 5 6 7 8 9 10 11 12 13 14 15 16 17 18 19 20

000
FTUS43 KBIS 250500
TAFJMS
TAF
KJMS 250520Z 2506/2606 23005KT P6SM SKC
     FM250800 21003KT 2SM BR SCT007
      TEMPO 2509/2513 1/2SM FG BKN005
     FM251400 33007KT P6SM SCT100
     FM260000 04010KT P6SM SCT090
     FM260400 07014G22KT P6SM SCT080=

USA.gov is the U.S. government's official web portal to all federal, state and local government web resources and services.